x

Virginia Beach 64 Nm East Of Virginia Beach, Va (44014) Wave Buoy

12:50 - Tue 30th May 2017 All times are EDT. -4 hours from GMT.

  • Sig Wave height 3.0ft
  • Swell Direction
  • Peak Period 8s
  • Average Period 5s
  • Wind
    11mph, 13mph gusts
  • Sea Temp 63°f
  • Aire Temp 65°f
  • Sea Pressure 1018.3mb
  • Virginia Beach 64 Nm East Of Virginia Beach, Va
  • Virginia Beach 64 Nm East Of Virginia Beach, Va

More Historic Weather Station data

Upgrade to MSW Pro to gain access to the past 30 days of data for over 8000 Wavebouys and Weather Stations around the globe.

Join Pro

Comparision Forecast

View Surf forecast
   
mar 05/30 12:50 3ft 8s 5s 11 13 mph 1018.3mb 63f 65f
lun 05/29 11:50 3ft 8s 5s 9 11 mph 1018.2mb 64f 65f
10:50 3ft 6s 5s 7 7 mph 1018.7mb 64f 64f
9:50 2.5ft 6s 5s 7 9 mph 1018.4mb 64f 64f
8:50 3ft 6s 5s 9 11 mph 1017.5mb 65f 63f
7:50 3ft 6s 5s 11 13 mph 1017.2mb 65f 63f
6:50 3ft 6s 6s 13 16 mph 1016mb 66f 63f
5:50 3.5ft 7s 6s 9 11 mph 1015.7mb 66f 65f
4:50 3.5ft 7s 6s 4 4 mph 1015.6mb 67f 65f
3:50 3.5ft 7s 6s 7 7 mph 1015.3mb 66f 66f
2:50 3.5ft 6s 5s 9 9 mph 1014.7mb 66f 67f
1:50 4ft 6s 6s 4 7 mph 1014.4mb 66f 66f
12:50 4ft 6s 6s 4 7 mph 1014.2mb 65f 65f
11:50 4ft 7s 6s 7 9 mph 1013.6mb 65f 64f
10:50 4.5ft 7s 6s 7 9 mph 1012.6mb 64f 64f
9:50 4ft 7s 6s 7 9 mph 1011.8mb 64f 64f
8:50 3.5ft 6s 5s 4 7 mph 1011.9mb 64f 64f
7:50 3.5ft 6s 5s 9 13 mph 1011.3mb 64f 63f
6:50 3.5ft 6s 5s 7 7 mph 1010.5mb 64f 64f
5:50 3.5ft 6s 5s 4 7 mph 1009.7mb 64f 64f
4:50 3.5ft 6s 5s 7 9 mph 1009.1mb 64f 64f
3:50 3.5ft 6s 5s 9 9 mph 1008.8mb 64f 63f
2:50 3ft 7s 5s 11 11 mph 1009mb 64f 63f
1:50 3ft 6s 5s 9 11 mph 1009mb 64f 63f
12:50 2.5ft 7s 5s 9 9 mph 1009.1mb 64f 64f
dom 05/28 11:50 2.5ft 6s 5s 7 9 mph 1009.2mb 64f 64f
10:50 2.5ft 6s 5s 9 9 mph 1009mb 65f 66f
9:50 2.5ft 6s 5s 7 7 mph 1008.6mb 65f 66f
8:50 2.5ft 6s 5s 7 7 mph 1008.4mb 65f 66f
7:50 3ft 7s 4s 9 11 mph 1009.1mb 65f 67f
6:50 2.5ft 7s 4s 11 13 mph 1008.5mb 66f 68f
5:50 2.5ft 6s 4s 16 20 mph 1008.5mb 67f 68f
4:50 3ft 6s 5s 11 11 mph 1008.8mb 67f 68f
3:50 3ft 6s 5s 9 9 mph 1009.3mb 67f 69f
2:50 3ft 6s 5s 7 9 mph 1009.8mb 67f 69f
1:50 3ft 6s 5s 7 7 mph 1011mb 67f 68f
12:50 2.5ft 7s 5s 4 4 mph 1012mb 66f 68f
11:50 2.5ft 7s 5s 9 9 mph 1011.6mb 66f 68f
10:50 2.5ft 7s 5s 4 7 mph 1011.8mb 66f 67f
9:50 2.5ft 5s 5s 4 4 mph 1011.6mb 65f 68f
8:50 2.5ft 5s 5s 2 4 mph 1011.7mb 64f 66f
7:50 2.5ft 5s 5s 7 7 mph 1010.9mb 64f 65f
6:50 2.5ft 5s 5s 2 4 mph 1011.1mb 64f 65f
5:50 3ft 5s 5s 4 7 mph 1010.6mb 64f 65f
4:50 3ft 6s 5s 2 2 mph 1010.7mb 64f 66f
3:50 3ft 6s 5s 7 9 mph 1010.5mb 64f 66f
2:50 3ft 5s 5s 16 18 mph 1010.6mb 64f 69f
1:50 3ft 7s 5s 11 11 mph 1011.3mb 65f 67f
12:50 2.5ft 8s 5s 13 16 mph 1011.9mb 65f 67f
sáb 05/27 11:50 2.5ft 7s 5s 7 7 mph 1011.7mb 65f 68f
10:50 2.5ft 8s 5s 16 18 mph 1011.5mb 65f 69f
9:50 2.5ft 8s 5s 9 9 mph 1011.4mb 66f 68f
8:50 2.5ft 7s 5s 7 7 mph 1011.7mb 66f 68f
7:50 2.5ft 8s 6s 7 9 mph 1012.1mb 67f 69f
6:50 2.5ft 7s 5s 9 9 mph 1011.7mb 68f 69f
5:50 2.5ft 7s 6s 4 4 mph 1012.1mb 67f 69f
4:50 3ft 8s 5s 4 7 mph 1012.3mb 67f 68f
3:50 3.5ft 8s 6s 2 4 mph 1013.1mb 66f 69f
2:50 3.5ft 7s 6s 4 4 mph 1013.1mb 66f 67f
1:50 3.5ft 8s 6s 9 9 mph 1013.1mb 65f 67f
12:50 3ft 7s 6s 7 9 mph 1013.7mb 65f 67f
11:50 3ft 8s 6s 4 7 mph 1013.8mb 64f 66f
10:50 3.5ft 8s 6s 7 7 mph 1013.9mb 64f 66f
9:50 3ft 7s 6s 4 4 mph 1014.6mb 63f 65f
8:50 3ft 7s 6s 2 4 mph 1014.7mb 62f 66f
7:50 3ft 8s 6s 2 4 mph 1014.1mb 62f 65f
6:50 3.5ft 7s 6s 2 4 mph 1014.5mb 62f 65f
5:50 3.5ft 7s 5s 2 4 mph 1013.9mb 62f 65f
4:50 3.5ft 7s 5s 4 7 mph 1013.8mb 62f 65f
3:50 3ft 7s 5s 7 7 mph 1013.5mb 62f 66f
2:50 3.5ft 7s 6s 7 7 mph 1013.6mb 62f 65f
1:50 3.5ft 7s 5s 4 4 mph 1013.9mb 62f 66f
12:50 3.5ft 7s 5s 11 16 mph 1013.8mb 63f 68f
vie 05/26 11:50 3ft 8s 5s 7 9 mph 1013.4mb 63f 65f
10:50 3.5ft 8s 5s 7 9 mph 1013.3mb 63f 65f
9:50 3.5ft 8s 6s 9 11 mph 1012.6mb 63f 67f
8:50 3.5ft 7s 6s 9 9 mph 1011.8mb 63f 65f
7:50 3.5ft 8s 6s 7 9 mph 1011.4mb 64f 65f
6:50 3.5ft 8s 5s 7 9 mph 1010.8mb 63f 65f
5:50 4ft 8s 6s 7 7 mph 1010.6mb 63f 65f
4:50 4.5ft 8s 6s 7 7 mph 1010.2mb 63f 65f
3:50 4.5ft 7s 5s 7 7 mph 1010mb 62f 65f
2:50 6ft 8s 6s 9 11 mph 1009.9mb 62f 65f
12:50 6ft 7s 6s 13 13 mph 1009.9mb 61f 64f
11:50 6ft 7s 5s 13 16 mph 1009.8mb 61f 64f